Time,TemperatureF,DewpointF,PressureIn,WindDirection,WindDirectionDegrees,WindSpeedMPH,WindSpeedGustMPH,Humidity,HourlyPrecipIn,Conditions,Clouds,dailyrainin,SoftwareType,DateUTC
2013-07-16 00:12:00,72.0,-99.9,30.16,SSW,213,0.0,6.0,-999,0.01,,,0.04,,2013-07-16 07:12:00,
2013-07-16 00:22:00,72.0,-99.9,30.16,SSW,213,0.0,6.0,-999,0.01,,,0.04,,2013-07-16 07:22:00,
2013-07-16 00:32:00,72.0,-99.9,30.16,SSW,213,0.0,6.0,-999,0.01,,,0.04,,2013-07-16 07:32:00,
2013-07-16 00:43:00,72.0,-99.9,30.16,SSW,213,0.0,6.0,-999,0.01,,,0.04,,2013-07-16 07:43:00,
2013-07-16 00:53:00,72.0,-99.9,30.16,SSW,213,0.0,6.0,-999,0.01,,,0.04,,2013-07-16 07:53:00,
2013-07-16 02:12:00,72.0,-99.9,30.16,South,184,0.0,0.0,-999,0.00,,,0.04,,2013-07-16 09:12:00,
2013-07-16 02:22:00,72.0,-99.9,30.16,South,184,0.0,0.0,-999,0.00,,,0.04,,2013-07-16 09:22:00,
2013-07-16 02:32:00,72.0,-99.9,30.16,South,184,0.0,0.0,-999,0.00,,,0.04,,2013-07-16 09:32:00,
2013-07-16 02:42:00,72.0,-99.9,30.15,South,184,0.0,0.0,-999,0.00,,,0.04,,2013-07-16 09:42:00,
2013-07-16 02:52:00,72.0,-99.9,30.15,South,184,0.0,0.0,-999,0.00,,,0.04,,2013-07-16 09:52:00,
2013-07-16 03:01:00,72.0,-99.9,30.15,South,184,0.0,0.0,-999,0.00,,,0.04,,2013-07-16 10:01:00,
2013-07-16 03:11:00,72.0,-99.9,30.15,South,184,0.0,0.0,-999,0.00,,,0.04,,2013-07-16 10:11:00,
2013-07-16 03:22:00,72.0,-99.9,30.15,South,184,0.0,0.0,-999,0.00,,,0.04,,2013-07-16 10:22:00,
2013-07-16 05:43:00,70.0,-99.9,30.15,SSW,196,0.0,0.0,-999,0.00,,,0.04,,2013-07-16 12:43:00,
2013-07-16 05:53:00,70.0,-99.9,30.15,SSW,196,0.0,0.0,-999,0.00,,,0.04,,2013-07-16 12:53:00,
2013-07-16 06:01:00,70.0,-99.9,30.15,SSW,196,0.0,0.0,-999,0.00,,,0.04,,2013-07-16 13:01:00,
2013-07-16 06:11:00,71.0,-99.9,30.17,SSW,196,0.0,0.0,-999,0.00,,,0.04,,2013-07-16 13:11:00,
2013-07-16 06:22:00,71.0,-99.9,30.17,SSW,196,0.0,0.0,-999,0.00,,,0.04,,2013-07-16 13:22:00,
2013-07-16 06:32:00,71.0,-99.9,30.17,SSW,196,0.0,0.0,-999,0.00,,,0.04,,2013-07-16 13:32:00,
2013-07-16 06:42:00,70.0,-99.9,30.17,SSW,196,0.0,0.0,-999,0.01,,,0.05,,2013-07-16 13:42:00,
2013-07-16 06:52:00,70.0,-99.9,30.17,SSW,196,0.0,0.0,-999,0.01,,,0.05,,2013-07-16 13:52:00,
2013-07-16 07:02:00,70.0,-99.9,30.17,SSW,196,0.0,0.0,-999,0.01,,,0.05,,2013-07-16 14:02:00,
2013-07-16 07:11:00,70.0,-99.9,30.17,South,189,0.0,0.0,-999,0.01,,,0.05,,2013-07-16 14:11:00,
2013-07-16 07:22:00,70.0,-99.9,30.17,South,189,0.0,0.0,-999,0.01,,,0.05,,2013-07-16 14:22:00,
2013-07-16 07:32:00,70.0,-99.9,30.17,South,189,0.0,0.0,-999,0.01,,,0.05,,2013-07-16 14:32:00,
2013-07-16 07:43:00,70.0,-99.9,30.18,South,177,1.0,5.0,-999,0.00,,,0.05,,2013-07-16 14:43:00,
2013-07-16 07:52:00,70.0,-99.9,30.18,South,177,1.0,5.0,-999,0.00,,,0.05,,2013-07-16 14:52:00,
2013-07-16 08:01:00,70.0,-99.9,30.18,South,177,1.0,5.0,-999,0.00,,,0.05,,2013-07-16 15:01:00,
2013-07-16 08:11:00,71.0,-99.9,30.18,SSE,167,0.0,0.0,-999,0.00,,,0.05,,2013-07-16 15:11:00,
2013-07-16 08:22:00,71.0,-99.9,30.18,SSE,167,0.0,0.0,-999,0.00,,,0.05,,2013-07-16 15:22:00,
2013-07-16 08:32:00,71.0,-99.9,30.18,SSE,167,0.0,0.0,-999,0.00,,,0.05,,2013-07-16 15:32:00,
2013-07-16 08:43:00,71.0,-99.9,30.18,South,185,2.0,6.0,-999,0.01,,,0.06,,2013-07-16 15:43:00,
2013-07-16 08:53:00,71.0,-99.9,30.18,South,185,2.0,6.0,-999,0.01,,,0.06,,2013-07-16 15:53:00,
2013-07-16 09:01:00,71.0,-99.9,30.18,South,185,2.0,6.0,-999,0.01,,,0.06,,2013-07-16 16:01:00,
2013-07-16 09:11:00,71.0,-99.9,30.18,South,185,2.0,6.0,-999,0.01,,,0.06,,2013-07-16 16:11:00,
2013-07-16 09:22:00,71.0,-99.9,30.18,South,185,2.0,6.0,-999,0.01,,,0.06,,2013-07-16 16:22:00,
2013-07-16 09:43:00,73.0,-99.9,30.19,ESE,120,0.0,0.0,-999,0.00,,,0.06,,2013-07-16 16:43:00,
2013-07-16 09:52:00,73.0,-99.9,30.19,ESE,120,0.0,0.0,-999,0.00,,,0.06,,2013-07-16 16:52:00,
2013-07-16 10:02:00,73.0,-99.9,30.19,ESE,120,0.0,0.0,-999,0.00,,,0.06,,2013-07-16 17:02:00,
2013-07-16 10:12:00,73.0,-99.9,30.19,ESE,120,0.0,0.0,-999,0.00,,,0.06,,2013-07-16 17:12:00,
2013-07-16 10:22:00,73.0,-99.9,30.19,ESE,120,0.0,0.0,-999,0.00,,,0.06,,2013-07-16 17:22:00,
2013-07-16 10:43:00,76.0,-99.9,30.20,SSW,194,0.0,4.0,-999,0.00,,,0.06,,2013-07-16 17:43:00,
2013-07-16 10:53:00,76.0,-99.9,30.20,SSW,194,0.0,4.0,-999,0.00,,,0.06,,2013-07-16 17:53:00,
2013-07-16 11:01:00,76.0,-99.9,30.20,SSW,194,0.0,4.0,-999,0.00,,,0.06,,2013-07-16 18:01:00,
2013-07-16 11:11:00,76.0,-99.9,30.19,SSW,192,1.0,4.0,-999,0.00,,,0.06,,2013-07-16 18:11:00,
2013-07-16 11:22:00,76.0,-99.9,30.19,SSW,192,1.0,4.0,-999,0.00,,,0.06,,2013-07-16 18:22:00,
2013-07-16 11:33:00,76.0,-99.9,30.19,SSW,192,1.0,4.0,-999,0.00,,,0.06,,2013-07-16 18:33:00,
2013-07-16 11:43:00,76.0,-99.9,30.19,NE,47,0.0,3.0,-999,0.00,,,0.06,,2013-07-16 18:43:00,
2013-07-16 11:53:00,76.0,-99.9,30.19,NE,47,0.0,3.0,-999,0.00,,,0.06,,2013-07-16 18:53:00,
2013-07-16 12:01:00,76.0,-99.9,30.19,NE,47,0.0,3.0,-999,0.00,,,0.06,,2013-07-16 19:01:00,
2013-07-16 12:11:00,81.0,-99.9,30.19,SSW,201,2.0,5.0,-999,0.00,,,0.06,,2013-07-16 19:11:00,
2013-07-16 12:22:00,81.0,-99.9,30.19,SSW,201,2.0,5.0,-999,0.00,,,0.06,,2013-07-16 19:22:00,
2013-07-16 12:32:00,81.0,-99.9,30.19,SSW,201,2.0,5.0,-999,0.00,,,0.06,,2013-07-16 19:32:00,
2013-07-16 12:43:00,80.0,-99.9,30.17,SW,225,0.0,7.0,-999,0.00,,,0.06,,2013-07-16 19:43:00,
2013-07-16 12:52:00,80.0,-99.9,30.17,SW,225,0.0,7.0,-999,0.00,,,0.06,,2013-07-16 19:52:00,
2013-07-16 13:03:00,80.0,-99.9,30.17,SW,225,0.0,7.0,-999,0.00,,,0.06,,2013-07-16 20:03:00,
2013-07-16 13:12:00,82.0,-99.9,30.16,NE,49,0.0,0.0,-999,0.00,,,0.06,,2013-07-16 20:12:00,
2013-07-16 13:23:00,82.0,-99.9,30.16,NE,49,0.0,0.0,-999,0.00,,,0.06,,2013-07-16 20:23:00,
2013-07-16 13:32:00,82.0,-99.9,30.16,NE,49,0.0,0.0,-999,0.00,,,0.06,,2013-07-16 20:32:00,
2013-07-16 13:43:00,80.0,-99.9,30.16,NE,35,3.0,8.0,-999,0.00,,,0.06,,2013-07-16 20:43:00,
2013-07-16 13:52:00,80.0,-99.9,30.16,NE,35,3.0,8.0,-999,0.00,,,0.06,,2013-07-16 20:52:00,
2013-07-16 14:01:00,80.0,-99.9,30.16,NE,35,3.0,8.0,-999,0.00,,,0.06,,2013-07-16 21:01:00,
2013-07-16 14:11:00,80.0,-99.9,30.16,NE,35,3.0,8.0,-999,0.00,,,0.06,,2013-07-16 21:11:00,
2013-07-16 14:22:00,80.0,-99.9,30.16,NE,35,3.0,8.0,-999,0.00,,,0.06,,2013-07-16 21:22:00,
2013-07-16 14:52:00,75.0,-99.9,30.17,NNE,16,0.0,0.0,-999,0.02,,,0.08,,2013-07-16 21:52:00,
2013-07-16 15:01:00,75.0,-99.9,30.17,NNE,16,0.0,0.0,-999,0.02,,,0.08,,2013-07-16 22:01:00,
2013-07-16 15:11:00,75.0,-99.9,30.17,NNE,16,0.0,0.0,-999,0.02,,,0.08,,2013-07-16 22:11:00,
2013-07-16 15:22:00,75.0,-99.9,30.17,NNE,16,0.0,0.0,-999,0.02,,,0.08,,2013-07-16 22:22:00,
2013-07-16 15:43:00,71.0,-99.9,30.19,NE,43,0.0,0.0,-999,0.08,,,0.16,,2013-07-16 22:43:00,
2013-07-16 15:53:00,71.0,-99.9,30.19,NE,43,0.0,0.0,-999,0.08,,,0.16,,2013-07-16 22:53:00,
2013-07-16 16:02:00,71.0,-99.9,30.19,NE,43,0.0,0.0,-999,0.08,,,0.16,,2013-07-16 23:02:00,
2013-07-16 16:11:00,71.0,-99.9,30.19,SW,216,0.0,0.0,-999,0.07,,,0.18,,2013-07-16 23:11:00,
2013-07-16 16:22:00,71.0,-99.9,30.19,SW,216,0.0,0.0,-999,0.07,,,0.18,,2013-07-16 23:22:00,
2013-07-16 16:32:00,71.0,-99.9,30.19,SW,216,0.0,0.0,-999,0.07,,,0.18,,2013-07-16 23:32:00,
2013-07-16 16:43:00,70.0,-99.9,30.19,South,172,0.0,0.0,-999,0.02,,,0.18,,2013-07-16 23:43:00,
2013-07-16 16:52:00,70.0,-99.9,30.19,South,172,0.0,0.0,-999,0.02,,,0.18,,2013-07-16 23:52:00,
2013-07-16 17:01:00,70.0,-99.9,30.19,South,172,0.0,0.0,-999,0.02,,,0.18,,2013-07-17 00:01:00,
2013-07-16 17:22:00,71.0,-99.9,30.19,South,177,0.0,3.0,-999,0.01,,,0.19,,2013-07-17 00:22:00,
2013-07-16 17:33:00,71.0,-99.9,30.19,South,177,0.0,3.0,-999,0.01,,,0.19,,2013-07-17 00:33:00,
2013-07-16 17:52:00,70.0,-99.9,30.19,SW,229,0.0,4.0,-999,0.02,,,0.20,,2013-07-17 00:52:00,
2013-07-16 18:01:00,70.0,-99.9,30.19,SW,229,0.0,4.0,-999,0.02,,,0.20,,2013-07-17 01:01:00,
2013-07-16 18:12:00,70.0,-99.9,30.19,South,178,0.0,0.0,-999,0.01,,,0.20,,2013-07-17 01:12:00,
2013-07-16 18:22:00,70.0,-99.9,30.19,South,178,0.0,0.0,-999,0.01,,,0.20,,2013-07-17 01:22:00,
2013-07-16 18:32:00,70.0,-99.9,30.19,South,178,0.0,0.0,-999,0.01,,,0.20,,2013-07-17 01:32:00,
2013-07-16 18:43:00,71.0,-99.9,30.19,SSE,150,0.0,0.0,-999,0.00,,,0.20,,2013-07-17 01:43:00,
2013-07-16 18:53:00,71.0,-99.9,30.19,SSE,150,0.0,0.0,-999,0.00,,,0.20,,2013-07-17 01:53:00,
2013-07-16 19:01:00,71.0,-99.9,30.19,SSE,150,0.0,0.0,-999,0.00,,,0.20,,2013-07-17 02:01:00,
2013-07-16 19:11:00,70.0,-99.9,30.19,SSW,196,0.0,5.0,-999,0.00,,,0.20,,2013-07-17 02:11:00,
2013-07-16 19:22:00,70.0,-99.9,30.19,SSW,196,0.0,5.0,-999,0.00,,,0.20,,2013-07-17 02:22:00,
2013-07-16 19:32:00,70.0,-99.9,30.19,SSW,196,0.0,5.0,-999,0.00,,,0.20,,2013-07-17 02:32:00,
2013-07-16 19:43:00,70.0,-99.9,30.19,SSW,196,0.0,5.0,-999,0.00,,,0.20,,2013-07-17 02:43:00,
2013-07-16 19:53:00,70.0,-99.9,30.19,SSW,196,0.0,5.0,-999,0.00,,,0.20,,2013-07-17 02:53:00,
2013-07-16 20:11:00,70.0,-99.9,30.20,SSE,161,0.0,0.0,-999,0.00,,,0.20,,2013-07-17 03:11:00,
2013-07-16 20:22:00,70.0,-99.9,30.20,SSE,161,0.0,0.0,-999,0.00,,,0.20,,2013-07-17 03:22:00,
2013-07-16 20:32:00,70.0,-99.9,30.20,SSE,161,0.0,0.0,-999,0.00,,,0.20,,2013-07-17 03:32:00,
2013-07-16 20:43:00,69.0,-99.9,30.20,SSE,161,1.0,4.0,-999,0.00,,,0.19,,2013-07-17 03:43:00,
2013-07-16 20:53:00,69.0,-99.9,30.20,SSE,161,1.0,4.0,-999,0.00,,,0.19,,2013-07-17 03:53:00,
2013-07-16 21:01:00,69.0,-99.9,30.20,SSE,161,1.0,4.0,-999,0.00,,,0.19,,2013-07-17 04:01:00,
2013-07-16 21:11:00,70.0,-99.9,30.21,South,191,0.0,0.0,-999,0.00,,,0.19,,2013-07-17 04:11:00,
2013-07-16 21:22:00,70.0,-99.9,30.21,South,191,0.0,0.0,-999,0.00,,,0.19,,2013-07-17 04:22:00,
2013-07-16 21:32:00,70.0,-99.9,30.21,South,191,0.0,0.0,-999,0.00,,,0.19,,2013-07-17 04:32:00,
2013-07-16 21:43:00,70.0,-99.9,30.23,South,191,0.0,0.0,-999,0.00,,,0.17,,2013-07-17 04:43:00,
2013-07-16 21:53:00,70.0,-99.9,30.23,South,191,0.0,0.0,-999,0.00,,,0.17,,2013-07-17 04:53:00,
2013-07-16 22:02:00,70.0,-99.9,30.23,South,191,0.0,0.0,-999,0.00,,,0.17,,2013-07-17 05:02:00,
2013-07-16 22:11:00,69.0,-99.9,30.23,South,191,0.0,0.0,-999,0.00,,,0.17,,2013-07-17 05:11:00,
2013-07-16 22:22:00,69.0,-99.9,30.23,South,191,0.0,0.0,-999,0.00,,,0.17,,2013-07-17 05:22:00,
2013-07-16 22:32:00,69.0,-99.9,30.23,South,191,0.0,0.0,-999,0.00,,,0.17,,2013-07-17 05:32:00,
2013-07-16 22:52:00,69.0,-99.9,30.23,South,191,0.0,0.0,-999,0.00,,,0.16,,2013-07-17 05:52:00,
2013-07-16 23:01:00,69.0,-99.9,30.23,South,191,0.0,0.0,-999,0.00,,,0.16,,2013-07-17 06:01:00,
2013-07-16 23:22:00,69.0,-99.9,30.24,South,191,0.0,0.0,-999,0.00,,,0.16,,2013-07-17 06:22:00,
2013-07-16 23:33:00,69.0,-99.9,30.24,South,191,0.0,0.0,-999,0.00,,,0.16,,2013-07-17 06:33:00,
2013-07-16 23:52:00,69.0,-99.9,30.24,South,191,0.0,0.0,-999,0.00,,,0.16,,2013-07-17 06:52:00,